Time;durP1;ratioP1;P1;durP2;ratioP2;P2;SDS_P1;SDS_P2;PMS_P1;PMS_P2;Temp;Humidity;BMP_temperature;BMP_pressure;BME280_temperature;BME280_humidity;BME280_pressure;Samples;Min_cycle;Max_cycle;Signal;HPM_P1;HPM_P2
2022/08/01 00:01:59;;;;;;;4.75;2.45;;;;;;;;;;6305762;28;20056;-69
2022/08/01 00:05:01;;;;;;;4.00;2.53;;;;;;;;;;6309495;28;20048;-68
2022/08/01 00:08:04;;;;;;;3.97;2.53;;;;;;;;;;6314645;28;20056;-69
2022/08/01 00:11:06;;;;;;;3.88;2.60;;;;;;;;;;6308003;28;20085;-68
2022/08/01 00:14:09;;;;;;;5.15;2.60;;;;;;;;;;6310933;28;20055;-68
2022/08/01 00:17:10;;;;;;;3.75;2.40;;;;;;;;;;6310849;28;20076;-69
2022/08/01 00:20:14;;;;;;;3.67;2.50;;;;;;;;;;6312794;28;20055;-67
2022/08/01 00:23:16;;;;;;;3.80;2.25;;;;;;;;;;6313050;28;20103;-68
2022/08/01 00:26:18;;;;;;;;;;;;;;;;;;6312199;28;20048;-69
2022/08/01 00:29:20;;;;;;;3.88;2.83;;;;;;;;;;6311351;28;19928;-68
2022/08/01 00:32:21;;;;;;;6.70;2.50;;;;;;;;;;6311243;28;20056;-68
2022/08/01 00:35:23;;;;;;;3.38;2.13;;;;;;;;;;6310529;28;20057;-68
2022/08/01 00:38:26;;;;;;;4.97;2.75;;;;;;;;;;6309766;28;20320;-68
2022/08/01 00:41:27;;;;;;;;;;;;;;;;;;6312216;28;20102;-67
2022/08/01 00:44:29;;;;;;;4.28;2.33;;;;;;;;;;6310403;28;19917;-68
2022/08/01 00:47:31;;;;;;;6.55;2.30;;;;;;;;;;6310191;28;20052;-70
2022/08/01 00:50:32;;;;;;;6.55;2.95;;;;;;;;;;6309913;28;20057;-68
2022/08/01 00:53:36;;;;;;;5.28;2.58;;;;;;;;;;6310174;28;20056;-68
2022/08/01 00:56:37;;;;;;;3.63;2.60;;;;;;;;;;6310898;28;20298;-69
2022/08/01 00:59:40;;;;;;;4.40;2.60;;;;;;;;;;6307987;28;20048;-69
2022/08/01 01:02:41;;;;;;;5.35;2.65;;;;;;;;;;6310883;28;20056;-67
2022/08/01 01:06:05;;;;;;;5.82;2.65;;;;;;;;;;6309263;28;20051;-68
2022/08/01 01:09:22;;;;;;;5.22;2.60;;;;;;;;;;6297364;28;20090;-68
2022/08/01 01:12:29;;;;;;;3.70;2.15;;;;;;;;;;6309297;28;20105;-67
2022/08/01 01:15:36;;;;;;;3.45;2.40;;;;;;;;;;6311238;28;20331;-68
2022/08/01 01:18:41;;;;;;;3.75;2.30;;;;;;;;;;6309626;28;20115;-67
2022/08/01 01:22:23;;;;;;;3.33;2.40;;;;;;;;;;6308881;28;20059;-68
2022/08/01 01:25:40;;;;;;;2.70;2.40;;;;;;;;;;6297434;28;20053;-69
2022/08/01 01:29:01;;;;;;;3.08;2.42;;;;;;;;;;6310903;28;20112;-68
2022/08/01 01:32:06;;;;;;;3.75;2.63;;;;;;;;;;6310175;28;20101;-69
2022/08/01 01:35:10;;;;;;;4.47;2.40;;;;;;;;;;6310253;28;20051;-68
2022/08/01 01:38:16;;;;;;;5.85;2.60;;;;;;;;;;6309366;28;20052;-68
2022/08/01 01:41:19;;;;;;;3.88;2.65;;;;;;;;;;6314135;28;20051;-69
2022/08/01 01:44:22;;;;;;;3.05;2.65;;;;;;;;;;6311740;28;20056;-68
2022/08/01 01:47:24;;;;;;;4.93;2.60;;;;;;;;;;6304580;28;20063;-68
2022/08/01 01:50:26;;;;;;;6.53;3.17;;;;;;;;;;6302874;28;20386;-68
2022/08/01 01:53:29;;;;;;;8.55;2.67;;;;;;;;;;6305353;28;20262;-67
2022/08/01 01:56:30;;;;;;;;;;;;;;;;;;6312694;28;20377;-68
2022/08/01 01:59:35;;;;;;;3.63;2.75;;;;;;;;;;6307684;28;19924;-71
2022/08/01 02:02:37;;;;;;;4.88;2.65;;;;;;;;;;6307038;28;20040;-68
2022/08/01 02:05:41;;;;;;;3.33;2.50;;;;;;;;;;6304528;28;20443;-69
2022/08/01 02:08:44;;;;;;;4.43;2.45;;;;;;;;;;6306729;28;20056;-68
2022/08/01 02:11:46;;;;;;;3.25;2.60;;;;;;;;;;6307001;28;20064;-68
2022/08/01 02:14:49;;;;;;;4.25;2.90;;;;;;;;;;6304935;28;20056;-67
2022/08/01 02:17:51;;;;;;;4.75;2.50;;;;;;;;;;6306757;28;20062;-66
2022/08/01 02:20:55;;;;;;;4.13;2.70;;;;;;;;;;6306431;28;20388;-72
2022/08/01 02:24:01;;;;;;;4.60;2.95;;;;;;;;;;6308721;28;20235;-67
2022/08/01 02:27:07;;;;;;;3.88;2.67;;;;;;;;;;6308198;28;20086;-67
2022/08/01 02:30:13;;;;;;;4.03;2.92;;;;;;;;;;6305629;28;20223;-70
2022/08/01 02:33:18;;;;;;;3.83;2.58;;;;;;;;;;6310087;28;20048;-70
2022/08/01 02:36:21;;;;;;;2.75;2.40;;;;;;;;;;6310604;28;20045;-67
2022/08/01 02:39:23;;;;;;;3.20;2.70;;;;;;;;;;6310107;28;20112;-67
2022/08/01 02:42:27;;;;;;;4.50;2.55;;;;;;;;;;6306996;28;20052;-68
2022/08/01 02:45:31;;;;;;;3.95;2.90;;;;;;;;;;6307421;28;20115;-71
2022/08/01 02:48:35;;;;;;;5.35;3.33;;;;;;;;;;6310941;28;20262;-68
2022/08/01 02:51:38;;;;;;;5.07;2.42;;;;;;;;;;6305465;28;20062;-68
2022/08/01 02:54:41;;;;;;;3.75;2.45;;;;;;;;;;6310138;28;20373;-68
2022/08/01 02:57:45;;;;;;;2.50;2.25;;;;;;;;;;6303749;28;20062;-69
2022/08/01 03:00:48;;;;;;;4.82;2.30;;;;;;;;;;6309344;28;20055;-67
2022/08/01 03:03:50;;;;;;;3.03;2.45;;;;;;;;;;6308140;28;20044;-68
2022/08/01 03:06:52;;;;;;;2.95;2.22;;;;;;;;;;6309203;28;20044;-68
2022/08/01 03:09:54;;;;;;;4.68;3.10;;;;;;;;;;6309254;28;20123;-68
2022/08/01 03:12:58;;;;;;;2.95;2.45;;;;;;;;;;6302039;28;20052;-68
2022/08/01 03:16:02;;;;;;;4.25;2.33;;;;;;;;;;6304191;28;20221;-68
2022/08/01 03:19:04;;;;;;;4.65;2.25;;;;;;;;;;6303831;28;20263;-68
2022/08/01 03:22:07;;;;;;;5.43;2.13;;;;;;;;;;6304024;28;20328;-68
2022/08/01 03:25:10;;;;;;;3.22;2.20;;;;;;;;;;6308225;28;20052;-68
2022/08/01 03:28:14;;;;;;;5.18;2.42;;;;;;;;;;6304261;28;20656;-71
2022/08/01 03:31:18;;;;;;;3.47;2.78;;;;;;;;;;6305145;28;20048;-68
2022/08/01 03:34:21;;;;;;;2.70;2.00;;;;;;;;;;6302919;28;20086;-69
2022/08/01 03:37:25;;;;;;;2.40;2.05;;;;;;;;;;6306672;28;20074;-68
2022/08/01 03:40:32;;;;;;;2.88;2.40;;;;;;;;;;6308887;28;20048;-67
2022/08/01 03:43:38;;;;;;;3.50;2.20;;;;;;;;;;6307013;28;20094;-68
2022/08/01 03:46:44;;;;;;;4.60;2.45;;;;;;;;;;6314305;28;20040;-68
2022/08/01 03:49:47;;;;;;;3.85;2.78;;;;;;;;;;6309589;28;20101;-69
2022/08/01 03:52:51;;;;;;;2.80;2.33;;;;;;;;;;6309376;28;20049;-68
2022/08/01 03:55:53;;;;;;;7.68;2.60;;;;;;;;;;6311320;28;20293;-68
2022/08/01 03:58:55;;;;;;;5.70;2.30;;;;;;;;;;6311434;28;20102;-68
2022/08/01 04:01:59;;;;;;;2.55;2.10;;;;;;;;;;6309123;28;20063;-68
2022/08/01 04:05:00;;;;;;;4.05;1.88;;;;;;;;;;6311558;28;20123;-69
2022/08/01 04:08:02;;;;;;;6.55;2.42;;;;;;;;;;6311235;28;20056;-68
2022/08/01 04:11:04;;;;;;;7.60;2.25;;;;;;;;;;6304566;28;20040;-68
2022/08/01 04:14:06;;;;;;;4.50;2.65;;;;;;;;;;6302596;28;20058;-70
2022/08/01 04:17:09;;;;;;;3.63;2.15;;;;;;;;;;6300219;28;20090;-69
2022/08/01 04:20:12;;;;;;;2.72;2.22;;;;;;;;;;6301888;28;20123;-68
2022/08/01 04:23:14;;;;;;;4.45;2.42;;;;;;;;;;6299975;28;20067;-71
2022/08/01 04:26:17;;;;;;;3.67;2.33;;;;;;;;;;6300425;28;20060;-69
2022/08/01 04:29:20;;;;;;;4.30;2.10;;;;;;;;;;6303069;28;20064;-72
2022/08/01 04:32:24;;;;;;;3.65;2.20;;;;;;;;;;6295891;28;20044;-72
2022/08/01 04:35:27;;;;;;;5.38;2.17;;;;;;;;;;6305468;28;20053;-68
2022/08/01 04:38:30;;;;;;;2.53;2.10;;;;;;;;;;6304973;28;20052;-77
2022/08/01 04:41:33;;;;;;;3.83;2.15;;;;;;;;;;6306995;28;20063;-69
2022/08/01 04:44:34;;;;;;;3.40;2.35;;;;;;;;;;6305289;28;20048;-67
2022/08/01 04:47:38;;;;;;;3.85;2.53;;;;;;;;;;6309239;28;20052;-67
2022/08/01 04:50:42;;;;;;;3.35;2.40;;;;;;;;;;6307151;28;20152;-77
2022/08/01 04:53:45;;;;;;;4.38;2.40;;;;;;;;;;6305007;28;20071;-69
2022/08/01 04:56:47;;;;;;;3.15;2.10;;;;;;;;;;6308278;28;20101;-68
2022/08/01 04:59:51;;;;;;;4.88;2.20;;;;;;;;;;6304748;28;20049;-69
2022/08/01 05:02:54;;;;;;;5.05;2.10;;;;;;;;;;6305667;28;20045;-69
2022/08/01 05:05:56;;;;;;;5.18;2.20;;;;;;;;;;6307844;28;20052;-69
2022/08/01 05:08:58;;;;;;;4.13;2.25;;;;;;;;;;6306438;28;20278;-68
2022/08/01 05:12:00;;;;;;;2.88;2.33;;;;;;;;;;6304784;28;20056;-75
2022/08/01 05:15:02;;;;;;;4.03;2.00;;;;;;;;;;6303862;28;20052;-69
2022/08/01 05:18:06;;;;;;;3.65;2.28;;;;;;;;;;6305928;28;20263;-68
2022/08/01 05:21:08;;;;;;;4.50;2.17;;;;;;;;;;6306726;28;20052;-69
2022/08/01 05:24:09;;;;;;;3.10;2.00;;;;;;;;;;6303250;28;20108;-75
2022/08/01 05:27:11;;;;;;;5.22;2.25;;;;;;;;;;6304195;28;20340;-73
2022/08/01 05:30:13;;;;;;;4.32;2.10;;;;;;;;;;6302574;28;20056;-69
2022/08/01 05:33:16;;;;;;;3.13;2.25;;;;;;;;;;6300119;28;20274;-69
2022/08/01 05:36:18;;;;;;;3.78;2.10;;;;;;;;;;6302522;28;20347;-71
2022/08/01 05:39:19;;;;;;;3.42;2.40;;;;;;;;;;6304419;28;20049;-69
2022/08/01 05:42:21;;;;;;;4.60;2.53;;;;;;;;;;6300181;28;20040;-73
2022/08/01 05:45:23;;;;;;;3.63;2.20;;;;;;;;;;6303318;28;20060;-69
2022/08/01 05:48:26;;;;;;;4.43;2.05;;;;;;;;;;6303628;28;20311;-72
2022/08/01 05:51:27;;;;;;;6.55;2.08;;;;;;;;;;6305888;28;20052;-71
2022/08/01 05:54:29;;;;;;;4.22;2.13;;;;;;;;;;6306127;28;20266;-71
2022/08/01 05:57:31;;;;;;;6.93;3.47;;;;;;;;;;6303722;28;20052;-70
2022/08/01 06:00:32;;;;;;;5.85;2.70;;;;;;;;;;6301207;28;20109;-70
2022/08/01 06:03:36;;;;;;;2.90;2.10;;;;;;;;;;6300495;28;20060;-70
2022/08/01 06:06:37;;;;;;;2.50;2.10;;;;;;;;;;6301791;28;20072;-70
2022/08/01 06:09:44;;;;;;;4.55;2.25;;;;;;;;;;6305250;28;20103;-69
2022/08/01 06:12:46;;;;;;;2.65;2.13;;;;;;;;;;6303083;28;20080;-70
2022/08/01 06:15:48;;;;;;;90.68;10.27;;;;;;;;;;6302980;28;20048;-70
2022/08/01 06:18:51;;;;;;;10.45;2.45;;;;;;;;;;6303261;28;20121;-67
2022/08/01 06:21:52;;;;;;;3.70;2.33;;;;;;;;;;6302818;28;20338;-71
2022/08/01 06:24:54;;;;;;;7.90;2.80;;;;;;;;;;6296506;28;20056;-70
2022/08/01 06:27:56;;;;;;;6.50;2.72;;;;;;;;;;6303594;28;20086;-69
2022/08/01 06:30:59;;;;;;;5.05;2.33;;;;;;;;;;6303556;28;20056;-69
2022/08/01 06:34:02;;;;;;;;;;;;;;;;;;6305349;28;20077;-72
2022/08/01 06:37:03;;;;;;;7.27;2.40;;;;;;;;;;6305350;28;19924;-71
2022/08/01 06:40:06;;;;;;;7.25;2.30;;;;;;;;;;6306009;28;20151;-69
2022/08/01 06:43:08;;;;;;;3.53;2.10;;;;;;;;;;6301602;28;20152;-70
2022/08/01 06:46:10;;;;;;;3.67;2.20;;;;;;;;;;6305346;28;20132;-71
2022/08/01 06:49:13;;;;;;;5.47;2.50;;;;;;;;;;6304101;28;20044;-70
2022/08/01 06:52:14;;;;;;;3.08;1.90;;;;;;;;;;6303247;28;20351;-70
2022/08/01 06:55:16;;;;;;;3.92;2.40;;;;;;;;;;6306996;28;20090;-71
2022/08/01 06:58:18;;;;;;;4.07;2.50;;;;;;;;;;6303952;28;20282;-71
2022/08/01 07:01:19;;;;;;;4.50;2.20;;;;;;;;;;6302135;28;20202;-70
2022/08/01 07:04:22;;;;;;;4.47;2.15;;;;;;;;;;6304461;28;20244;-70
2022/08/01 07:07:24;;;;;;;3.38;1.80;;;;;;;;;;6305829;28;20093;-70
2022/08/01 07:10:26;;;;;;;3.53;1.90;;;;;;;;;;6304390;28;20044;-71
2022/08/01 07:13:27;;;;;;;5.97;2.28;;;;;;;;;;6304840;28;20094;-72
2022/08/01 07:16:29;;;;;;;4.80;2.00;;;;;;;;;;6304025;28;20044;-71
2022/08/01 07:19:33;;;;;;;3.85;1.75;;;;;;;;;;6304358;28;20047;-72
2022/08/01 07:22:34;;;;;;;4.05;1.90;;;;;;;;;;6303261;28;20083;-72
2022/08/01 07:25:36;;;;;;;3.78;1.98;;;;;;;;;;6303710;28;20052;-72
2022/08/01 07:28:38;;;;;;;3.42;2.20;;;;;;;;;;6302187;28;20052;-71
2022/08/01 07:31:40;;;;;;;6.35;2.60;;;;;;;;;;6303545;28;20045;-72
2022/08/01 07:34:43;;;;;;;3.20;2.30;;;;;;;;;;6301105;28;20052;-71
2022/08/01 07:37:44;;;;;;;4.40;2.10;;;;;;;;;;6304566;28;20052;-71
2022/08/01 07:40:46;;;;;;;4.15;2.25;;;;;;;;;;6302527;28;20098;-72
2022/08/01 07:43:48;;;;;;;5.20;2.20;;;;;;;;;;6303906;28;20048;-71
2022/08/01 07:46:50;;;;;;;2.38;2.13;;;;;;;;;;6306238;28;20048;-70
2022/08/01 07:49:59;;;;;;;5.47;2.42;;;;;;;;;;6302184;28;20066;-71
2022/08/01 07:53:02;;;;;;;5.65;2.17;;;;;;;;;;6301124;28;20270;-71
2022/08/01 07:56:05;;;;;;;4.93;2.30;;;;;;;;;;6304980;28;20059;-71
2022/08/01 07:59:07;;;;;;;4.18;2.70;;;;;;;;;;6306220;28;20048;-74
2022/08/01 08:02:08;;;;;;;5.45;2.42;;;;;;;;;;6305800;28;20106;-71
2022/08/01 08:05:12;;;;;;;2.47;2.08;;;;;;;;;;6303330;28;20052;-71
2022/08/01 08:08:15;;;;;;;8.85;2.70;;;;;;;;;;6303226;28;20064;-74
2022/08/01 08:11:17;;;;;;;3.75;2.30;;;;;;;;;;6304205;28;20044;-70
2022/08/01 08:17:35;;;;;;;5.82;2.50;;;;;;;;;;6250601;28;20401;-72
2022/08/01 08:20:38;;;;;;;4.85;3.25;;;;;;;;;;6250200;28;20112;-71
2022/08/01 08:27:00;;;;;;;3.97;2.47;;;;;;;;;;6252518;28;20049;-71
2022/08/01 08:30:05;;;;;;;5.57;3.00;;;;;;;;;;6247690;28;20123;-71
2022/08/01 08:33:07;;;;;;;3.90;2.42;;;;;;;;;;6251618;28;20332;-73
2022/08/01 08:36:11;;;;;;;3.73;2.50;;;;;;;;;;6251737;28;20054;-72
2022/08/01 08:39:12;;;;;;;4.50;2.70;;;;;;;;;;6249110;28;20049;-71
2022/08/01 08:42:14;;;;;;;4.88;3.03;;;;;;;;;;6252409;28;20065;-72
2022/08/01 08:45:16;;;;;;;6.13;3.07;;;;;;;;;;6250314;28;20053;-72
2022/08/01 08:48:18;;;;;;;6.28;3.38;;;;;;;;;;6281680;28;20350;-72
2022/08/01 08:51:22;;;;;;;7.40;3.30;;;;;;;;;;6298942;28;20053;-72
2022/08/01 08:54:24;;;;;;;4.85;2.78;;;;;;;;;;6284061;28;20068;-71
2022/08/01 08:57:25;;;;;;;5.82;3.78;;;;;;;;;;6281556;28;20228;-72
2022/08/01 09:00:27;;;;;;;5.18;3.63;;;;;;;;;;6283723;28;20044;-71
2022/08/01 09:03:29;;;;;;;5.77;3.10;;;;;;;;;;6283871;28;20052;-71
2022/08/01 09:06:34;;;;;;;3.78;2.88;;;;;;;;;;6281070;27;20509;-72
2022/08/01 09:09:37;;;;;;;7.38;3.35;;;;;;;;;;6281904;28;20079;-71
2022/08/01 09:12:38;;;;;;;5.80;2.97;;;;;;;;;;6279366;28;20064;-72
2022/08/01 09:15:45;;;;;;;3.97;2.70;;;;;;;;;;6281596;27;20049;-72
2022/08/01 09:18:47;;;;;;;6.70;3.05;;;;;;;;;;6281995;28;20048;-74
2022/08/01 09:21:58;;;;;;;5.65;3.13;;;;;;;;;;6282119;28;20044;-71
2022/08/01 09:25:02;;;;;;;5.40;2.85;;;;;;;;;;6281145;28;20052;-71
2022/08/01 09:28:05;;;;;;;5.47;3.20;;;;;;;;;;6280658;28;20099;-71
2022/08/01 09:31:08;;;;;;;6.60;3.10;;;;;;;;;;6279290;28;20068;-72
2022/08/01 09:34:10;;;;;;;5.65;3.05;;;;;;;;;;6282966;28;20262;-75
2022/08/01 09:37:17;;;;;;;5.55;2.88;;;;;;;;;;6280364;28;20052;-71
2022/08/01 09:40:18;;;;;;;4.43;2.78;;;;;;;;;;6280990;28;20331;-72
2022/08/01 09:43:21;;;;;;;4.43;2.20;;;;;;;;;;6280465;28;20041;-72
2022/08/01 09:46:23;;;;;;;5.45;3.28;;;;;;;;;;6280747;28;20068;-71
2022/08/01 09:49:29;;;;;;;6.05;3.25;;;;;;;;;;6279143;28;20263;-71
2022/08/01 09:52:32;;;;;;;5.80;2.83;;;;;;;;;;6280338;28;20040;-73
2022/08/01 09:55:34;;;;;;;3.80;2.42;;;;;;;;;;6282531;28;20292;-72
2022/08/01 09:58:49;;;;;;;13.27;2.45;;;;;;;;;;6279744;28;20154;-71
2022/08/01 10:01:51;;;;;;;4.50;2.78;;;;;;;;;;6279345;28;20057;-72
2022/08/01 10:04:54;;;;;;;3.30;2.40;;;;;;;;;;6279892;28;20048;-72
2022/08/01 10:07:59;;;;;;;7.38;2.13;;;;;;;;;;6279689;28;20052;-71
2022/08/01 10:11:08;;;;;;;4.47;2.63;;;;;;;;;;6280182;28;20040;-72
2022/08/01 10:14:13;;;;;;;4.05;2.20;;;;;;;;;;6281603;28;20060;-72
2022/08/01 10:17:16;;;;;;;3.95;2.50;;;;;;;;;;6280988;28;20064;-72
2022/08/01 10:20:20;;;;;;;5.63;2.50;;;;;;;;;;6279000;28;20053;-72
2022/08/01 10:23:23;;;;;;;3.63;2.38;;;;;;;;;;6279362;28;20060;-72
2022/08/01 10:26:27;;;;;;;4.50;2.55;;;;;;;;;;6281138;28;20041;-72
2022/08/01 10:29:28;;;;;;;4.85;3.00;;;;;;;;;;6283229;28;20057;-71
2022/08/01 10:32:30;;;;;;;;;;;;;;;;;;6277338;28;20368;-72
2022/08/01 10:35:32;;;;;;;7.55;2.60;;;;;;;;;;6280086;28;19917;-72
2022/08/01 10:38:36;;;;;;;4.60;2.40;;;;;;;;;;6280626;28;20143;-71
2022/08/01 10:41:38;;;;;;;3.38;2.50;;;;;;;;;;6282025;28;20055;-72
2022/08/01 10:44:41;;;;;;;3.85;2.70;;;;;;;;;;6278769;28;20045;-72
2022/08/01 10:47:46;;;;;;;5.18;2.67;;;;;;;;;;6285313;28;20063;-73
2022/08/01 10:50:50;;;;;;;3.88;2.40;;;;;;;;;;6280279;28;20094;-72
2022/08/01 10:53:54;;;;;;;3.97;2.40;;;;;;;;;;6281542;28;20400;-73
2022/08/01 10:57:01;;;;;;;4.40;3.10;;;;;;;;;;6281472;28;20154;-72
2022/08/01 11:00:03;;;;;;;2.97;2.28;;;;;;;;;;6280242;28;20053;-74
2022/08/01 11:03:05;;;;;;;5.85;2.80;;;;;;;;;;6279313;28;20058;-73
2022/08/01 11:06:07;;;;;;;3.80;2.13;;;;;;;;;;6281151;28;20340;-72
2022/08/01 11:09:23;;;;;;;4.00;2.40;;;;;;;;;;6279494;28;20075;-72
2022/08/01 11:12:38;;;;;;;4.28;2.47;;;;;;;;;;6278753;28;20116;-71
2022/08/01 11:15:41;;;;;;;4.50;2.13;;;;;;;;;;6278048;28;20048;-73
2022/08/01 11:18:51;;;;;;;2.45;2.17;;;;;;;;;;6282553;28;20316;-73
2022/08/01 11:22:04;;;;;;;6.05;2.13;;;;;;;;;;6284358;28;20056;-72
2022/08/01 11:25:07;;;;;;;2.45;1.98;;;;;;;;;;6285449;28;20044;-71
2022/08/01 11:28:20;;;;;;;2.55;1.85;;;;;;;;;;6281392;28;20056;-73
2022/08/01 11:31:32;;;;;;;5.45;2.10;;;;;;;;;;6279377;28;20052;-71
2022/08/01 11:34:56;;;;;;;3.10;2.17;;;;;;;;;;6278390;28;20246;-71
2022/08/01 11:37:59;;;;;;;3.42;1.98;;;;;;;;;;6278617;28;20052;-72
2022/08/01 11:41:12;;;;;;;2.75;1.98;;;;;;;;;;6285668;28;20056;-71
2022/08/01 11:44:25;;;;;;;2.90;2.10;;;;;;;;;;6283695;28;20053;-73
2022/08/01 11:47:44;;;;;;;3.25;2.00;;;;;;;;;;6289326;28;20049;-74
2022/08/01 11:50:46;;;;;;;4.63;3.15;;;;;;;;;;6307637;28;20071;-73
2022/08/01 11:53:48;;;;;;;5.65;3.80;;;;;;;;;;6291406;28;20097;-73
2022/08/01 11:56:51;;;;;;;;;;;;;;;;;;6279029;28;20375;-73
2022/08/01 11:59:54;;;;;;;3.75;2.35;;;;;;;;;;6277715;28;19967;-72
2022/08/01 12:03:00;;;;;;;5.10;2.45;;;;;;;;;;6292058;27;20044;-73
2022/08/01 12:06:02;;;;;;;5.72;4.85;;;;;;;;;;6291651;27;20056;-72
2022/08/01 12:09:16;;;;;;;15.30;11.57;;;;;;;;;;6287544;28;20116;-73
2022/08/01 12:12:20;;;;;;;5.03;2.97;;;;;;;;;;6287204;28;20363;-74
2022/08/01 12:15:23;;;;;;;5.57;4.90;;;;;;;;;;6288821;28;20119;-73
2022/08/01 12:18:25;;;;;;;4.10;2.30;;;;;;;;;;6283311;28;20301;-73
2022/08/01 12:21:27;;;;;;;5.28;4.53;;;;;;;;;;6284719;28;20041;-74
2022/08/01 12:24:28;;;;;;;39.00;33.40;;;;;;;;;;6284637;28;21222;-74
2022/08/01 12:27:46;;;;;;;3.80;2.63;;;;;;;;;;6282851;28;20111;-73
2022/08/01 12:30:49;;;;;;;2.83;2.58;;;;;;;;;;6291183;27;20045;-75
2022/08/01 12:33:50;;;;;;;2.42;2.00;;;;;;;;;;6285516;28;20055;-74
2022/08/01 12:36:52;;;;;;;8.70;2.40;;;;;;;;;;6287604;28;20055;-74
2022/08/01 12:39:54;;;;;;;2.85;2.20;;;;;;;;;;6288134;28;20247;-73
2022/08/01 12:42:58;;;;;;;5.45;2.17;;;;;;;;;;6287606;27;20048;-72
2022/08/01 12:46:01;;;;;;;3.03;2.40;;;;;;;;;;6290477;27;20052;-73
2022/08/01 12:49:03;;;;;;;2.65;2.17;;;;;;;;;;6284455;28;20040;-69
2022/08/01 12:52:05;;;;;;;2.03;1.83;;;;;;;;;;6285865;28;20316;-70
2022/08/01 12:55:12;;;;;;;2.40;2.00;;;;;;;;;;6285063;28;20060;-72
2022/08/01 12:58:17;;;;;;;2.22;1.80;;;;;;;;;;6283391;28;20267;-72
2022/08/01 13:01:26;;;;;;;2.65;1.95;;;;;;;;;;6282539;28;20236;-73
2022/08/01 13:04:28;;;;;;;2.30;1.75;;;;;;;;;;6281266;28;20351;-72
2022/08/01 13:07:44;;;;;;;2.95;1.80;;;;;;;;;;6288258;28;20141;-72
2022/08/01 13:10:46;;;;;;;2.22;1.90;;;;;;;;;;6286453;28;20052;-71
2022/08/01 13:13:51;;;;;;;2.13;1.75;;;;;;;;;;6308318;28;20100;-72
2022/08/01 13:16:53;;;;;;;3.17;1.90;;;;;;;;;;6310925;28;20120;-72
2022/08/01 13:19:54;;;;;;;1.75;1.50;;;;;;;;;;6311928;28;20045;-71
2022/08/01 13:22:56;;;;;;;1.73;1.63;;;;;;;;;;6310554;28;20044;-71
2022/08/01 13:25:58;;;;;;;2.47;1.67;;;;;;;;;;6311300;28;20044;-72
2022/08/01 13:29:07;;;;;;;2.00;1.80;;;;;;;;;;6309853;28;20048;-71
2022/08/01 13:32:16;;;;;;;2.80;1.98;;;;;;;;;;6313031;28;20150;-73
2022/08/01 13:35:21;;;;;;;1.70;1.60;;;;;;;;;;6319032;28;20097;-70
2022/08/01 13:39:40;;;;;;;3.42;2.03;;;;;;;;;;6308425;28;20059;-72
2022/08/01 13:41:45;;;;;;;1.63;1.52;;;;;;;;;;6314299;28;20126;-73
2022/08/01 13:44:48;;;;;;;1.80;1.70;;;;;;;;;;6314470;28;20052;-72
2022/08/01 13:47:50;;;;;;;4.03;1.58;;;;;;;;;;6314361;28;20288;-70
2022/08/01 13:50:52;;;;;;;3.47;1.85;;;;;;;;;;6316264;28;20209;-71
2022/08/01 13:53:54;;;;;;;1.67;1.52;;;;;;;;;;6317712;28;20278;-71
2022/08/01 13:56:56;;;;;;;3.13;1.60;;;;;;;;;;6312908;28;20049;-72
2022/08/01 13:59:59;;;;;;;1.60;1.50;;;;;;;;;;6314421;28;20303;-72
2022/08/01 14:03:01;;;;;;;1.55;1.45;;;;;;;;;;6314117;28;20347;-70
2022/08/01 14:06:03;;;;;;;2.47;1.50;;;;;;;;;;6310752;28;20286;-72
2022/08/01 14:09:05;;;;;;;1.50;1.20;;;;;;;;;;6313730;28;20102;-72
2022/08/01 14:12:08;;;;;;;1.75;1.40;;;;;;;;;;6315611;28;20061;-72
2022/08/01 14:15:11;;;;;;;1.40;1.30;;;;;;;;;;6317338;28;20412;-69
2022/08/01 14:18:13;;;;;;;1.42;1.30;;;;;;;;;;6313500;28;20101;-77
2022/08/01 14:21:15;;;;;;;2.10;1.33;;;;;;;;;;6311866;28;20055;-75
2022/08/01 14:24:16;;;;;;;2.05;1.30;;;;;;;;;;6312902;28;20052;-72
2022/08/01 14:27:18;;;;;;;37.13;30.55;;;;;;;;;;6312363;28;20328;-74
2022/08/01 14:30:21;;;;;;;26.77;22.25;;;;;;;;;;6313633;28;20060;-76
2022/08/01 14:33:23;;;;;;;31.08;25.48;;;;;;;;;;6317943;28;20319;-75
2022/08/01 14:36:25;;;;;;;13.38;11.15;;;;;;;;;;6314955;28;20048;-74
2022/08/01 14:39:26;;;;;;;4.20;2.10;;;;;;;;;;6311525;28;20059;-78
2022/08/01 14:42:28;;;;;;;2.40;1.40;;;;;;;;;;6313655;28;20109;-74
2022/08/01 14:45:32;;;;;;;2.28;1.88;;;;;;;;;;6312456;28;20052;-75
2022/08/01 14:48:34;;;;;;;1.75;1.40;;;;;;;;;;6307415;28;20057;-72
2022/08/01 14:51:37;;;;;;;1.58;1.40;;;;;;;;;;6305660;28;20045;-73
2022/08/01 14:54:39;;;;;;;3.28;1.70;;;;;;;;;;6303564;28;20060;-73
2022/08/01 14:57:41;;;;;;;3.45;1.40;;;;;;;;;;6305759;28;20044;-73
2022/08/01 15:00:44;;;;;;;1.50;1.40;;;;;;;;;;6303728;28;20101;-74
2022/08/01 15:03:46;;;;;;;3.00;1.50;;;;;;;;;;6302911;28;20097;-74
2022/08/01 15:06:47;;;;;;;1.48;1.30;;;;;;;;;;6305766;28;20051;-71
2022/08/01 15:09:49;;;;;;;1.33;1.23;;;;;;;;;;6305203;28;20076;-74
2022/08/01 15:12:51;;;;;;;2.92;1.52;;;;;;;;;;6303229;28;20052;-72
2022/08/01 15:15:54;;;;;;;1.98;1.30;;;;;;;;;;6307961;28;20058;-72
2022/08/01 15:18:55;;;;;;;1.80;1.30;;;;;;;;;;6305473;28;20060;-71
2022/08/01 15:21:57;;;;;;;1.33;1.13;;;;;;;;;;6308549;28;20064;-73
2022/08/01 15:25:00;;;;;;;1.75;1.33;;;;;;;;;;6305320;28;20044;-73
2022/08/01 15:28:02;;;;;;;2.70;1.30;;;;;;;;;;6306297;28;20381;-72
2022/08/01 15:31:05;;;;;;;2.72;1.35;;;;;;;;;;6305770;28;20059;-72
2022/08/01 15:34:07;;;;;;;2.33;1.25;;;;;;;;;;6304824;28;20385;-74
2022/08/01 15:37:10;;;;;;;1.45;1.15;;;;;;;;;;6305412;28;20060;-72
2022/08/01 15:40:12;;;;;;;1.52;1.15;;;;;;;;;;6303933;28;20217;-72
2022/08/01 15:43:13;;;;;;;;;;;;;;;;;;6304581;28;20335;-71
2022/08/01 15:46:17;;;;;;;1.40;1.10;;;;;;;;;;6308257;28;19924;-72
2022/08/01 15:49:21;;;;;;;2.42;1.42;;;;;;;;;;6305674;28;20053;-72
2022/08/01 15:52:23;;;;;;;2.60;1.20;;;;;;;;;;6305926;28;20331;-70
2022/08/01 15:55:25;;;;;;;1.38;1.27;;;;;;;;;;6305487;28;20112;-73
2022/08/01 15:58:26;;;;;;;1.33;1.23;;;;;;;;;;6304981;28;20052;-72
2022/08/01 16:01:30;;;;;;;1.38;1.23;;;;;;;;;;6306585;28;20049;-72
2022/08/01 16:04:31;;;;;;;1.38;1.00;;;;;;;;;;6301141;28;20052;-73
2022/08/01 16:07:33;;;;;;;1.63;1.10;;;;;;;;;;6304269;28;20048;-72
2022/08/01 16:10:35;;;;;;;1.88;1.10;;;;;;;;;;6304458;28;20078;-73
2022/08/01 16:13:36;;;;;;;1.40;1.30;;;;;;;;;;6304386;28;20090;-73
2022/08/01 16:16:40;;;;;;;1.30;1.00;;;;;;;;;;6304249;28;20060;-74
2022/08/01 16:19:42;;;;;;;1.83;1.10;;;;;;;;;;6304056;28;20117;-74
2022/08/01 16:22:43;;;;;;;1.00;0.75;;;;;;;;;;6305088;28;20044;-76
2022/08/01 16:25:45;;;;;;;1.08;0.98;;;;;;;;;;6305267;28;20048;-76
2022/08/01 16:28:51;;;;;;;2.50;1.20;;;;;;;;;;6303630;28;20061;-73
2022/08/01 16:31:54;;;;;;;2.33;1.00;;;;;;;;;;6303394;28;20070;-73
2022/08/01 16:34:56;;;;;;;3.10;1.10;;;;;;;;;;6308561;28;20052;-72
2022/08/01 16:37:57;;;;;;;3.35;1.05;;;;;;;;;;6308574;28;20063;-73
2022/08/01 16:40:59;;;;;;;2.13;1.10;;;;;;;;;;6307813;28;20119;-73
2022/08/01 16:44:01;;;;;;;1.20;1.00;;;;;;;;;;6308065;28;20049;-73
2022/08/01 16:47:04;;;;;;;1.88;1.20;;;;;;;;;;6308017;28;20205;-73
2022/08/01 16:50:08;;;;;;;1.52;1.08;;;;;;;;;;6306812;28;20062;-73
2022/08/01 16:53:10;;;;;;;3.30;1.00;;;;;;;;;;6306100;28;20090;-72
2022/08/01 16:56:11;;;;;;;2.20;1.10;;;;;;;;;;6311865;28;20052;-74
2022/08/01 16:59:13;;;;;;;1.55;0.90;;;;;;;;;;6303737;28;20044;-73
2022/08/01 17:02:16;;;;;;;1.23;0.88;;;;;;;;;;6305480;28;20052;-73
2022/08/01 17:05:19;;;;;;;1.33;1.05;;;;;;;;;;6301546;28;20106;-73
2022/08/01 17:08:21;;;;;;;1.75;1.00;;;;;;;;;;6301323;28;20064;-73
2022/08/01 17:11:22;;;;;;;1.13;0.88;;;;;;;;;;6306717;28;20343;-71
2022/08/01 17:14:24;;;;;;;1.00;0.90;;;;;;;;;;6308635;28;20055;-72
2022/08/01 17:17:27;;;;;;;1.30;1.20;;;;;;;;;;6304118;28;20077;-73
2022/08/01 17:20:30;;;;;;;1.45;1.10;;;;;;;;;;6302436;28;20271;-72
2022/08/01 17:23:32;;;;;;;3.30;1.13;;;;;;;;;;6300242;28;20048;-73
2022/08/01 17:26:34;;;;;;;1.75;1.08;;;;;;;;;;6302400;28;20309;-73
2022/08/01 17:29:36;;;;;;;3.30;1.10;;;;;;;;;;6303440;28;20052;-69
2022/08/01 17:32:40;;;;;;;1.95;1.00;;;;;;;;;;6304068;28;20064;-74
2022/08/01 17:35:42;;;;;;;1.02;0.82;;;;;;;;;;6306063;28;20063;-73
2022/08/01 17:38:44;;;;;;;2.08;1.20;;;;;;;;;;6303887;28;20052;-68
2022/08/01 17:41:46;;;;;;;1.42;1.20;;;;;;;;;;6306038;28;20053;-73
2022/08/01 17:44:49;;;;;;;;;;;;;;;;;;6302572;28;20044;-71
2022/08/01 17:47:52;;;;;;;1.25;1.15;;;;;;;;;;6307669;28;19938;-72
2022/08/01 17:50:53;;;;;;;1.23;1.13;;;;;;;;;;6303002;28;20052;-71
2022/08/01 17:53:55;;;;;;;3.87;1.50;;;;;;;;;;6303967;28;20090;-74
2022/08/01 17:56:57;;;;;;;2.17;1.20;;;;;;;;;;6306174;28;20476;-72
2022/08/01 17:59:58;;;;;;;1.10;0.80;;;;;;;;;;6302302;28;20053;-73
2022/08/01 18:03:01;;;;;;;1.30;1.20;;;;;;;;;;6304260;28;20475;-73
2022/08/01 18:06:03;;;;;;;2.83;1.05;;;;;;;;;;6301490;28;20661;-71
2022/08/01 18:09:05;;;;;;;2.30;1.20;;;;;;;;;;6304949;28;20056;-74
2022/08/01 18:12:07;;;;;;;1.47;0.90;;;;;;;;;;6305647;28;20040;-72
2022/08/01 18:15:10;;;;;;;5.15;1.33;;;;;;;;;;6304591;28;20051;-73
2022/08/01 18:18:15;;;;;;;2.53;1.20;;;;;;;;;;6301444;28;20056;-71
2022/08/01 18:21:34;;;;;;;;;;;;;;;;;;;;;
2022/08/01 18:24:36;;;;;;;1.88;1.30;;;;;;;;;;6302354;28;20054;-72
2022/08/01 18:27:39;;;;;;;2.50;1.10;;;;;;;;;;6307952;28;20051;-79
2022/08/01 18:30:41;;;;;;;1.60;1.30;;;;;;;;;;6307482;28;20471;-74